Latest Weather Observations for Spring Bay

IDT60801

Issued at 11:31 pm EDT Monday 2 March 2015 (issued every 30 minutes, with the page automatically refreshed every 10 minutes)

About weather observations | Map of weather stations | Latest weather observations for TAS | Other Formats
Station Details ID: 092133 Name: SPRING BAY NTC AWS Lat: -42.55 Lon: 147.93 Height: 0.0 m
Data from the previous 72 hours. | See also: Recent months for locations in Tasmania
Date/Time
EDT
Temp
°C
App
Temp
°C
Dew
Point
Rel
Hum
%
Delta-T
°C
Wind Press
QNH
hPa
Press
MSL
hPa
Rain
since 9 am
mm
Dir
 
Spd
km/h
Gust
km/h
Spd
kts
Gust
kts
02/11:30pm 15.3 - - - - - - - - - 1013.0 1013.0 -
02/11:00pm 15.4 - - - - - - - - - 1012.9 1012.9 -
02/10:30pm 15.7 - - - - - - - - - 1012.7 1012.7 -
02/10:00pm 16.2 - - - - - - - - - 1012.2 1012.2 -
02/09:30pm 16.7 - - - - - - - - - 1011.7 1011.7 -
02/09:00pm 17.3 - - - - - - - - - 1011.3 1011.3 -
02/08:30pm 17.9 - - - - - - - - - 1010.9 1010.9 -
02/08:00pm 18.4 - - - - - - - - - 1010.7 1010.7 -
02/07:30pm 18.7 - - - - - - - - - 1010.7 1010.7 -
02/07:00pm 19.2 - - - - - - - - - 1010.4 1010.4 -
02/06:30pm 19.6 - - - - - - - - - 1010.4 1010.4 -
02/06:00pm 19.8 - - - - - - - - - 1010.7 1010.7 -
02/05:30pm 19.4 - - - - - - - - - 1010.8 1010.8 -
02/05:00pm 19.0 - - - - - - - - - 1011.2 1011.2 -
02/04:30pm 18.4 - - - - - - - - - 1011.4 1011.4 -
02/04:00pm 18.2 - - - - - - - - - 1011.9 1011.9 -
02/03:30pm 18.0 - - - - - - - - - 1012.3 1012.3 -
02/03:00pm 18.1 - - - - - - - - - 1012.8 1012.8 -
02/02:30pm 18.4 - - - - - - - - - 1013.5 1013.5 -
02/02:00pm 18.0 - - - - - - - - - 1014.0 1014.0 -
02/01:30pm 17.3 - - - - - - - - - 1014.5 1014.5 -
02/01:00pm 17.3 - - - - - - - - - 1015.2 1015.2 -
02/12:30pm 16.3 - - - - - - - - - 1016.4 1016.4 -
02/12:00pm 15.4 - - - - - - - - - 1017.2 1017.2 -
02/11:30am 15.1 - - - - - - - - - 1017.7 1017.7 -
02/11:00am 14.5 - - - - - - - - - 1018.1 1018.1 -
02/10:30am 13.4 - - - - - - - - - 1018.4 1018.4 -
02/10:00am 13.1 - - - - - - - - - 1018.6 1018.6 -
02/09:30am 13.6 - - - - - - - - - 1018.6 1018.6 -
02/09:00am 12.2 - - - - - - - - - 1018.8 1018.8 -
02/08:30am 11.6 - - - - - - - - - 1019.0 1019.0 -
02/08:00am 10.4 - - - - - - - - - 1018.8 1018.8 -
02/07:30am 10.6 - - - - - - - - - 1018.5 1018.5 -
02/07:00am 9.9 - - - - - - - - - 1018.4 1018.4 -
02/06:30am 9.5 - - - - - - - - - 1018.3 1018.3 -
02/06:00am 9.8 - - - - - - - - - 1018.3 1018.3 -
02/05:30am 9.5 - - - - - - - - - 1018.3 1018.3 -
02/05:00am 9.9 - - - - - - - - - 1018.2 1018.2 -
02/04:30am 9.5 - - - - - - - - - 1018.1 1018.1 -
02/04:00am 10.4 - - - - - - - - - 1017.9 1017.9 -
02/03:30am 9.8 - - - - - - - - - 1018.0 1018.0 -
02/03:00am 11.2 - - - - - - - - - 1017.6 1017.6 -
02/02:30am 10.9 - - - - - - - - - 1017.5 1017.5 -
02/02:00am 10.5 - - - - - - - - - 1017.6 1017.6 -
02/01:30am 11.0 - - - - - - - - - 1017.5 1017.5 -
02/01:00am 12.2 - - - - - - - - - 1017.5 1017.5 -
02/12:30am 12.7 - - - - - - - - - 1017.3 1017.3 -
02/12:00am 13.1 - - - - - - - - - 1016.9 1016.9 -
 
Date/Time
EDT
Temp
°C
App
Temp
°C
Dew
Point
Rel
Hum
%
Delta-T
°C
Wind Press
QNH
hPa
Press
MSL
hPa
Rain
since 9 am
mm
Dir
 
Spd
km/h
Gust
km/h
Spd
kts
Gust
kts
01/11:30pm 13.7 - - - - - - - - - 1016.8 1016.8 -
01/11:00pm 13.8 - - - - - - - - - 1017.0 1017.0 -
01/10:30pm 14.0 - - - - - - - - - 1016.7 1016.7 -
01/10:00pm 14.7 - - - - - - - - - 1016.5 1016.5 -
01/09:30pm 14.7 - - - - - - - - - 1016.2 1016.2 -
01/09:00pm 15.1 - - - - - - - - - 1015.8 1015.8 -
01/08:30pm 15.3 - - - - - - - - - 1015.1 1015.1 -
01/08:00pm 15.5 - - - - - - - - - 1014.6 1014.6 -
01/07:30pm 15.9 - - - - - - - - - 1013.8 1013.8 -
01/07:00pm 16.3 - - - - - - - - - 1013.4 1013.4 -
01/06:30pm 16.9 - - - - - - - - - 1012.9 1012.9 -
01/06:00pm 16.6 - - - - - - - - - 1012.4 1012.4 -
01/05:30pm 16.6 - - - - - - - - - 1011.7 1011.7 -
01/05:00pm 17.3 - - - - - - - - - 1011.3 1011.3 -
01/04:30pm 17.2 - - - - - - - - - 1011.1 1011.1 -
01/04:00pm 17.4 - - - - - - - - - 1010.5 1010.5 -
01/03:30pm 17.5 - - - - - - - - - 1010.2 1010.2 -
01/03:00pm 16.8 - - - - - - - - - 1009.9 1009.9 -
01/02:30pm 16.9 - - - - - - - - - 1009.5 1009.5 -
01/02:00pm 16.5 - - - - - - - - - 1009.1 1009.1 -
01/01:30pm 17.9 - - - - - - - - - 1008.6 1008.6 -
01/01:00pm 17.8 - - - - - - - - - 1008.3 1008.3 -
01/12:30pm 17.1 - - - - - - - - - 1008.2 1008.2 -
01/12:00pm 17.4 - - - - - - - - - 1007.8 1007.8 -
01/11:30am 17.4 - - - - - - - - - 1007.4 1007.4 -
01/11:00am 17.1 - - - - - - - - - 1007.0 1007.0 -
01/10:30am 16.6 - - - - - - - - - 1006.5 1006.5 -
01/10:00am 16.4 - - - - - - - - - 1005.8 1005.8 -
01/09:30am 16.3 - - - - - - - - - 1005.4 1005.4 -
01/09:00am 15.7 - - - - - - - - - 1004.9 1004.9 -
01/08:30am 15.1 - - - - - - - - - 1004.4 1004.4 -
01/08:00am 16.1 - - - - - - - - - 1003.5 1003.5 -
01/07:30am 15.9 - - - - - - - - - 1002.7 1002.7 -
01/07:00am 15.7 - - - - - - - - - 1001.8 1001.8 -
01/06:30am 15.8 - - - - - - - - - 1001.1 1001.1 -
01/06:00am 15.9 - - - - - - - - - 1000.5 1000.5 -
01/05:30am 16.2 - - - - - - - - - 1000.2 1000.2 -
01/05:00am 16.8 - - - - - - - - - 1000.1 1000.1 -
01/04:30am 17.0 - - - - - - - - - 999.8 999.8 -
01/04:00am 17.2 - - - - - - - - - 999.7 999.7 -
01/03:30am 17.7 - - - - - - - - - 999.9 999.9 -
01/03:00am 18.0 - - - - - - - - - 999.9 999.9 -
01/02:30am 18.6 - - - - - - - - - 999.9 999.9 -
01/02:00am 18.7 - - - - - - - - - 999.4 999.4 -
01/01:30am 19.5 - - - - - - - - - 999.2 999.2 -
01/01:00am 19.9 - - - - - - - - - 999.0 999.0 -
01/12:30am 20.2 - - - - - - - - - 999.0 999.0 -
01/12:00am 19.3 - - - - - - - - - 998.7 998.7 -
 
Date/Time
EDT
Temp
°C
App
Temp
°C
Dew
Point
Rel
Hum
%
Delta-T
°C
Wind Press
QNH
hPa
Press
MSL
hPa
Rain
since 9 am
mm
Dir
 
Spd
km/h
Gust
km/h
Spd
kts
Gust
kts
28/11:30pm 20.0 - - - - - - - - - 998.6 998.6 -
28/11:00pm 19.6 - - - - - - - - - 998.1 998.1 -
28/10:30pm 19.9 - - - - - - - - - 998.4 998.4 -
28/10:00pm 20.0 - - - - - - - - - 998.1 998.1 -
28/09:30pm 20.1 - - - - - - - - - 997.7 997.7 -
28/09:00pm 19.9 - - - - - - - - - 997.9 997.9 -
28/08:30pm 20.0 - - - - - - - - - 997.5 997.5 -
28/08:00pm 20.1 - - - - - - - - - 997.2 997.2 -
28/07:30pm 20.2 - - - - - - - - - 997.0 997.0 -
28/07:00pm 20.5 - - - - - - - - - 997.0 997.0 -
28/06:30pm 20.4 - - - - - - - - - 997.6 997.6 -
28/06:00pm 20.5 - - - - - - - - - 997.9 997.9 -
28/05:30pm 20.3 - - - - - - - - - 998.2 998.2 -
28/05:00pm 20.1 - - - - - - - - - 999.0 999.0 -
28/04:30pm 20.1 - - - - - - - - - 999.2 999.2 -
28/04:00pm 20.1 - - - - - - - - - 999.5 999.5 -
28/03:30pm 20.1 - - - - - - - - - 1000.0 1000.0 -
28/03:00pm 19.8 - - - - - - - - - 1000.5 1000.5 -
28/02:30pm 19.4 - - - - - - - - - 1001.0 1001.0 -
28/02:00pm 18.6 - - - - - - - - - 1001.4 1001.4 -
28/01:30pm 17.6 - - - - - - - - - 1001.7 1001.7 -
28/01:00pm 16.6 - - - - - - - - - 1002.4 1002.4 -
28/12:30pm 16.9 - - - - - - - - - 1002.9 1002.9 -
28/12:00pm 17.3 - - - - - - - - - 1003.0 1003.0 -
28/11:30am 17.1 - - - - - - - - - 1003.3 1003.3 -
28/11:00am 17.2 - - - - - - - - - 1003.8 1003.8 -

Other Formats:

Comma delimited format used in spreadsheet applications
http://www.bom.gov.au/fwo/IDT60801/IDT60801.95987.axf

JavaScript Object Notation format (JSON) in row-major order
http://www.bom.gov.au/fwo/IDT60801/IDT60801.95987.json